Terminal Aerodrome Forecast
Issued by NWS

Home | Current Version | Previous Version | Text Only | Print | Product List | Glossary On
Versions: 1 2 3 4 5 6 7 8 9 10 11 12 13 14
347
FTUS46 KLOX 160910 AAB
TAFLGB
TAF AMD
KLGB 160910Z 1609/1706 VRB03KT 3SM BR BKN200
     FM161200 VRB03KT 6SM BR OVC010
     FM161600 VRB03KT P6SM SCT010 BKN200
     FM161900 17007KT P6SM BKN200
     FM170000 28008KT P6SM BKN200
     FM170400 VRB03KT P6SM BKN200=

USA.gov is the U.S. government's official web portal to all federal, state and local government web resources and services.